Time;durP1;ratioP1;P1;durP2;ratioP2;P2;SDS_P1;SDS_P2;PMS_P1;PMS_P2;Temp;Humidity;BMP_temperature;BMP_pressure;BME280_temperature;BME280_humidity;BME280_pressure;Samples;Min_cycle;Max_cycle;Signal;HPM_P1;HPM_P2
2023/08/03 00:02:20;;;;;;;11.40;4.15;;;21.50;99.90;;;;;;4915750;29;20396;-76
2023/08/03 00:04:46;;;;;;;10.63;4.55;;;21.50;99.90;;;;;;4896266;29;20107;-77
2023/08/03 00:07:12;;;;;;;6.93;4.20;;;21.50;99.90;;;;;;4904525;29;20473;-76
2023/08/03 00:09:39;;;;;;;7.70;4.32;;;21.50;99.90;;;;;;4882732;29;20099;-74
2023/08/03 00:12:06;;;;;;;9.13;4.40;;;21.40;99.90;;;;;;4915500;29;20016;-76
2023/08/03 00:14:32;;;;;;;10.90;5.53;;;21.50;99.90;;;;;;4915966;29;20511;-75
2023/08/03 00:16:58;;;;;;;9.57;5.30;;;21.40;99.90;;;;;;4903267;29;20027;-74
2023/08/03 00:19:23;;;;;;;8.23;4.63;;;21.40;99.90;;;;;;4915959;29;20028;-76
2023/08/03 00:21:49;;;;;;;10.18;5.72;;;21.50;99.90;;;;;;4915251;29;20052;-76
2023/08/03 00:24:15;;;;;;;8.48;4.90;;;21.40;99.90;;;;;;4915828;29;20468;-77
2023/08/03 00:26:41;;;;;;;12.95;6.05;;;21.40;99.90;;;;;;4915358;29;20032;-77
2023/08/03 00:29:07;;;;;;;14.45;6.70;;;21.40;99.90;;;;;;4915527;29;20024;-77
2023/08/03 00:31:32;;;;;;;10.50;6.43;;;21.30;99.90;;;;;;4915716;29;20507;-74
2023/08/03 00:33:58;;;;;;;8.88;5.78;;;21.30;99.90;;;;;;4915764;29;20385;-77
2023/08/03 00:36:24;;;;;;;10.43;5.70;;;21.30;99.90;;;;;;4915575;29;20503;-78
2023/08/03 00:38:50;;;;;;;9.32;5.85;;;21.30;99.90;;;;;;4898504;29;20047;-77
2023/08/03 00:41:16;;;;;;;11.13;5.72;;;21.30;99.90;;;;;;4915488;29;20805;-78
2023/08/03 00:43:42;;;;;;;12.07;6.90;;;21.30;99.90;;;;;;4895435;29;20121;-77
2023/08/03 00:46:08;;;;;;;12.27;6.65;;;21.30;99.90;;;;;;4918411;29;20027;-77
2023/08/03 00:48:34;;;;;;;10.60;6.60;;;21.10;99.90;;;;;;4923284;29;20050;-75
2023/08/03 00:50:59;;;;;;;10.48;6.43;;;21.10;99.90;;;;;;4916843;29;20428;-78
2023/08/03 00:53:25;;;;;;;10.40;6.78;;;21.10;99.90;;;;;;4915187;29;20106;-75
2023/08/03 00:55:51;;;;;;;13.70;7.70;;;21.00;99.90;;;;;;4915334;29;20404;-78
2023/08/03 00:58:17;;;;;;;14.52;8.38;;;21.00;99.90;;;;;;4914055;29;20039;-77
2023/08/03 01:00:43;;;;;;;19.25;10.48;;;21.00;99.90;;;;;;4896807;29;20039;-73
2023/08/03 01:03:08;;;;;;;20.92;12.07;;;20.90;99.90;;;;;;4916116;29;20048;-76
2023/08/03 01:05:34;;;;;;;22.33;13.63;;;20.80;99.90;;;;;;4915374;29;20028;-77
2023/08/03 01:08:00;;;;;;;20.40;12.70;;;20.80;99.90;;;;;;4915575;29;20115;-77
2023/08/03 01:10:28;;;;;;;20.48;11.57;;;20.80;99.90;;;;;;4914329;29;20035;-77
2023/08/03 01:12:57;;;;;;;19.70;12.38;;;20.80;99.90;;;;;;4896992;29;20028;-77
2023/08/03 01:15:23;;;;;;;19.17;10.30;;;20.80;99.90;;;;;;4897457;29;20040;-78
2023/08/03 01:17:49;;;;;;;16.85;8.82;;;20.80;99.90;;;;;;4885990;29;20035;-77
2023/08/03 01:20:18;;;;;;;12.85;7.07;;;20.80;99.90;;;;;;4913890;29;20066;-75
2023/08/03 01:22:44;;;;;;;15.45;6.10;;;20.70;99.90;;;;;;4906744;29;20096;-77
2023/08/03 01:25:11;;;;;;;11.27;5.80;;;20.60;99.90;;;;;;4932788;29;20538;-77
2023/08/03 01:27:37;;;;;;;10.65;6.10;;;20.50;99.90;;;;;;4937473;29;20028;-76
2023/08/03 01:30:04;;;;;;;9.90;5.55;;;20.50;99.90;;;;;;4937472;29;20059;-77
2023/08/03 01:32:30;;;;;;;9.80;5.15;;;20.50;99.90;;;;;;4915346;29;20032;-78
2023/08/03 01:34:57;;;;;;;10.65;5.57;;;20.50;99.90;;;;;;4930745;29;20078;-76
2023/08/03 01:37:24;;;;;;;8.55;5.47;;;20.60;99.90;;;;;;4919343;29;20063;-77
2023/08/03 01:39:50;;;;;;;14.52;5.53;;;20.50;99.90;;;;;;4939380;29;20114;-78
2023/08/03 01:42:15;;;;;;;11.68;4.65;;;20.60;99.90;;;;;;4934578;29;20539;-77
2023/08/03 01:44:42;;;;;;;10.18;5.18;;;20.50;99.90;;;;;;4934993;29;20067;-73
2023/08/03 01:47:09;;;;;;;8.23;4.10;;;20.60;99.90;;;;;;4914635;29;20071;-73
2023/08/03 01:49:35;;;;;;;7.97;4.68;;;20.60;99.90;;;;;;4914824;29;20044;-74
2023/08/03 01:52:01;;;;;;;6.45;3.75;;;20.50;99.90;;;;;;4917143;29;20472;-76
2023/08/03 01:54:27;;;;;;;9.18;4.88;;;20.50;99.90;;;;;;4934559;29;20023;-76
2023/08/03 01:56:54;;;;;;;9.77;4.47;;;20.50;99.90;;;;;;4918424;29;20742;-76
2023/08/03 01:59:20;;;;;;;7.05;4.63;;;20.50;99.90;;;;;;4917052;29;20031;-76
2023/08/03 02:01:46;;;;;;;8.55;5.20;;;20.60;99.90;;;;;;4917520;29;20036;-75
2023/08/03 02:04:14;;;;;;;12.57;5.35;;;20.50;99.90;;;;;;4934521;29;20024;-76
2023/08/03 02:06:47;;;;;;;8.27;5.60;;;20.40;99.90;;;;;;4914737;29;20035;-75
2023/08/03 02:09:13;;;;;;;12.30;6.03;;;20.50;99.90;;;;;;4925562;29;20134;-75
2023/08/03 02:11:39;;;;;;;7.85;5.40;;;20.50;99.90;;;;;;4917281;29;20472;-76
2023/08/03 02:14:05;;;;;;;15.35;5.88;;;20.50;99.90;;;;;;4935205;29;20024;-75
2023/08/03 02:16:32;;;;;;;10.50;6.25;;;20.50;99.90;;;;;;4917754;29;20074;-75
2023/08/03 02:18:58;;;;;;;12.88;5.95;;;20.50;99.90;;;;;;4912899;29;20044;-76
2023/08/03 02:21:24;;;;;;;14.18;6.70;;;20.50;99.90;;;;;;4915076;29;20032;-75
2023/08/03 02:23:50;;;;;;;14.27;6.03;;;20.50;99.90;;;;;;4934410;29;20082;-76
2023/08/03 02:26:15;;;;;;;12.88;6.72;;;20.50;99.90;;;;;;4916962;29;20055;-75
2023/08/03 02:28:41;;;;;;;12.38;6.82;;;20.50;99.90;;;;;;4934325;29;20020;-76
2023/08/03 02:31:08;;;;;;;15.18;7.30;;;20.40;99.90;;;;;;4916891;29;20039;-78
2023/08/03 02:33:41;;;;;;;11.25;6.28;;;20.40;99.90;;;;;;4916207;29;20027;-76
2023/08/03 02:36:07;;;;;;;12.82;7.22;;;20.30;99.90;;;;;;4934299;29;20036;-75
2023/08/03 02:38:34;;;;;;;13.50;6.25;;;20.30;99.90;;;;;;4916906;29;20851;-75
2023/08/03 02:40:59;;;;;;;12.48;6.90;;;20.20;99.90;;;;;;4914762;29;20032;-73
2023/08/03 02:43:28;;;;;;;15.13;7.30;;;20.20;99.90;;;;;;4913704;29;20047;-74
2023/08/03 02:45:55;;;;;;;9.88;5.68;;;20.20;99.90;;;;;;4916855;29;20028;-74
2023/08/03 02:48:21;;;;;;;12.82;7.00;;;20.20;99.90;;;;;;4933823;29;20028;-76
2023/08/03 02:50:52;;;;;;;14.18;7.25;;;20.10;99.90;;;;;;4916433;29;20036;-76
2023/08/03 02:53:18;;;;;;;14.18;7.28;;;20.00;99.90;;;;;;4912774;29;20043;-77
2023/08/03 02:55:46;;;;;;;13.65;6.82;;;20.10;99.90;;;;;;4916811;29;20115;-76
2023/08/03 02:58:12;;;;;;;12.02;6.35;;;20.10;99.90;;;;;;4916373;29;20176;-76
2023/08/03 03:00:39;;;;;;;10.57;5.70;;;20.20;99.90;;;;;;4915988;29;20499;-75
2023/08/03 03:03:06;;;;;;;6.57;4.18;;;20.20;99.90;;;;;;4903372;29;20046;-75
2023/08/03 03:05:39;;;;;;;8.80;4.28;;;20.10;99.90;;;;;;4916517;29;20034;-74
2023/08/03 03:08:08;;;;;;;5.68;3.85;;;20.00;99.90;;;;;;4916730;29;20110;-72
2023/08/03 03:10:35;;;;;;;9.05;4.22;;;19.90;99.90;;;;;;4915573;29;20072;-72
2023/08/03 03:13:01;;;;;;;6.93;4.10;;;19.90;99.90;;;;;;4916067;29;20387;-76
2023/08/03 03:15:27;;;;;;;7.95;3.70;;;19.90;99.90;;;;;;4916717;29;20402;-75
2023/08/03 03:17:53;;;;;;;7.90;3.92;;;19.80;99.90;;;;;;4916165;29;20035;-75
2023/08/03 03:20:23;;;;;;;8.52;4.57;;;19.80;99.90;;;;;;4916215;29;20032;-76
2023/08/03 03:22:49;;;;;;;8.98;4.97;;;19.80;99.90;;;;;;4913675;29;20046;-75
2023/08/03 03:25:15;;;;;;;8.52;4.70;;;19.80;99.90;;;;;;4916342;29;20118;-73
2023/08/03 03:27:41;;;;;;;7.75;4.22;;;19.80;99.90;;;;;;4932961;29;20043;-76
2023/08/03 03:30:09;;;;;;;6.50;3.92;;;19.80;99.90;;;;;;4915979;29;20087;-75
2023/08/03 03:32:35;;;;;;;7.40;4.65;;;19.90;99.90;;;;;;4915667;29;20028;-74
2023/08/03 03:35:01;;;;;;;7.78;3.97;;;19.90;99.90;;;;;;4933077;29;20024;-76
2023/08/03 03:37:26;;;;;;;9.20;4.25;;;19.90;99.90;;;;;;4914985;29;20032;-75
2023/08/03 03:39:52;;;;;;;10.40;4.22;;;20.00;99.90;;;;;;4919315;29;20027;-74
2023/08/03 03:42:25;;;;;;;8.20;4.03;;;20.20;99.90;;;;;;4915822;29;20437;-77
2023/08/03 03:44:50;;;;;;;8.60;4.13;;;20.30;99.90;;;;;;4915942;29;20028;-75
2023/08/03 03:47:17;;;;;;;7.20;4.10;;;20.60;99.90;;;;;;4915008;29;20092;-76
2023/08/03 03:49:46;;;;;;;9.85;4.45;;;21.00;99.90;;;;;;4915101;29;20040;-76
2023/08/03 03:52:12;;;;;;;7.03;3.95;;;21.50;99.90;;;;;;4932862;29;20028;-76
2023/08/03 03:54:38;;;;;;;8.50;4.32;;;21.90;99.90;;;;;;4915869;29;20435;-73
2023/08/03 03:57:06;;;;;;;10.15;3.88;;;22.30;99.90;;;;;;4913412;29;20118;-76
2023/08/03 03:59:33;;;;;;;7.72;3.53;;;22.80;99.90;;;;;;4912528;29;20028;-76
2023/08/03 04:02:00;;;;;;;8.13;3.60;;;23.30;99.90;;;;;;4914134;29;20024;-76
2023/08/03 04:04:26;;;;;;;8.20;4.35;;;23.70;99.90;;;;;;4914646;29;20060;-76
2023/08/03 04:06:51;;;;;;;9.43;4.22;;;24.10;99.90;;;;;;4928424;29;20059;-76
2023/08/03 04:09:19;;;;;;;9.80;4.90;;;24.30;99.90;;;;;;4911812;29;20087;-76
2023/08/03 04:11:45;;;;;;;15.40;5.82;;;24.60;99.90;;;;;;4909128;29;20040;-76
2023/08/03 04:14:11;;;;;;;9.07;4.85;;;25.40;99.90;;;;;;4914644;29;20035;-76
2023/08/03 04:16:36;;;;;;;9.38;5.10;;;25.90;99.90;;;;;;4920278;29;20501;-76
2023/08/03 04:19:02;;;;;;;7.97;4.38;;;26.10;99.90;;;;;;4934839;29;20028;-73
2023/08/03 04:21:28;;;;;;;8.35;4.85;;;27.00;99.90;;;;;;4915944;29;20039;-75
2023/08/03 04:23:55;;;;;;;8.88;5.40;;;27.30;99.90;;;;;;4917139;29;20031;-76
2023/08/03 04:26:22;;;;;;;10.80;4.75;;;27.70;99.90;;;;;;4934316;29;20111;-74
2023/08/03 04:28:48;;;;;;;9.05;4.57;;;28.20;99.90;;;;;;4917227;29;20178;-73
2023/08/03 04:31:14;;;;;;;11.88;4.22;;;28.60;99.90;;;;;;4913845;29;20059;-73
2023/08/03 04:33:45;;;;;;;8.73;3.97;;;28.70;99.90;;;;;;4908971;29;20032;-76
2023/08/03 04:36:12;;;;;;;9.20;4.35;;;28.60;99.90;;;;;;4928364;29;20379;-76
2023/08/03 04:38:39;;;;;;;7.05;3.85;;;29.40;99.90;;;;;;4920294;29;20030;-76
2023/08/03 04:41:05;;;;;;;8.13;4.30;;;30.10;99.90;;;;;;4938182;29;20032;-73
2023/08/03 04:43:35;;;;;;;10.70;4.88;;;;;;;;;;4918868;29;20080;-75
2023/08/03 04:46:02;;;;;;;13.23;4.55;;;31.30;99.90;;;;;;4928641;29;20035;-74
2023/08/03 04:48:28;;;;;;;7.13;4.65;;;31.30;99.90;;;;;;4917426;29;20097;-73
2023/08/03 04:50:56;;;;;;;11.65;5.15;;;;;;;;;;4915961;29;20096;-73
2023/08/03 04:53:23;;;;;;;9.82;4.45;;;31.90;99.90;;;;;;4934710;29;20504;-77
2023/08/03 04:55:50;;;;;;;10.75;4.72;;;31.80;99.90;;;;;;4927505;29;20038;-75
2023/08/03 04:58:16;;;;;;;11.38;5.35;;;;;;;;;;4938280;29;20035;-77
2023/08/03 05:00:46;;;;;;;8.25;4.38;;;32.50;99.90;;;;;;4920526;29;20031;-77
2023/08/03 05:03:12;;;;;;;8.75;5.05;;;31.40;99.90;;;;;;4917955;29;20044;-76
2023/08/03 05:05:38;;;;;;;9.25;5.43;;;31.20;99.90;;;;;;4905241;29;20391;-77
2023/08/03 05:08:05;;;;;;;10.82;6.75;;;31.20;99.90;;;;;;4917646;29;20079;-76
2023/08/03 05:10:30;;;;;;;13.80;6.72;;;31.30;99.90;;;;;;4916956;29;20035;-76
2023/08/03 05:12:56;;;;;;;19.45;6.40;;;29.80;99.90;;;;;;4938267;29;20035;-73
2023/08/03 05:15:22;;;;;;;13.48;6.85;;;29.30;99.90;;;;;;4920607;29;20070;-76
2023/08/03 05:17:49;;;;;;;13.90;7.07;;;;;;;;;;4937758;29;20031;-76
2023/08/03 05:20:16;;;;;;;15.65;5.68;;;28.70;99.90;;;;;;4937511;29;20031;-73
2023/08/03 05:22:42;;;;;;;12.75;6.05;;;28.30;99.90;;;;;;4916085;29;20036;-74
2023/08/03 05:25:09;;;;;;;11.95;5.63;;;28.20;99.90;;;;;;4919021;29;20046;-77
2023/08/03 05:27:35;;;;;;;8.15;4.70;;;28.10;99.90;;;;;;4935099;29;20071;-75
2023/08/03 05:30:01;;;;;;;12.00;5.75;;;;;;;;;;4937328;29;20035;-72
2023/08/03 05:32:27;;;;;;;9.07;4.45;;;27.80;99.90;;;;;;4937448;29;20436;-73
2023/08/03 05:34:53;;;;;;;9.52;4.60;;;27.90;99.90;;;;;;4937156;29;20027;-73
2023/08/03 05:37:18;;;;;;;12.35;4.85;;;28.00;99.90;;;;;;4934800;29;20027;-74
2023/08/03 05:39:44;;;;;;;7.65;4.18;;;28.10;99.90;;;;;;4937310;29;20491;-73
2023/08/03 05:42:14;;;;;;;11.20;5.47;;;28.20;99.90;;;;;;4942850;29;20034;-76
2023/08/03 05:44:40;;;;;;;8.77;4.45;;;28.30;99.90;;;;;;4937097;29;20070;-76
2023/08/03 05:47:10;;;;;;;8.60;4.35;;;28.10;99.90;;;;;;4937164;29;20032;-73
2023/08/03 05:49:37;;;;;;;9.70;4.32;;;28.20;99.90;;;;;;4936920;29;20065;-76
2023/08/03 05:52:03;;;;;;;13.90;5.28;;;28.40;99.90;;;;;;4924303;29;20033;-76
2023/08/03 05:54:29;;;;;;;11.10;6.05;;;28.30;99.90;;;;;;4946246;29;20027;-74
2023/08/03 05:56:55;;;;;;;16.45;6.07;;;28.20;99.90;;;;;;4925107;29;20043;-77
2023/08/03 05:59:23;;;;;;;11.88;5.63;;;28.30;99.90;;;;;;4937092;29;20027;-76
2023/08/03 06:01:50;;;;;;;9.80;4.72;;;28.40;99.90;;;;;;4936404;29;20024;-76
2023/08/03 06:04:17;;;;;;;9.80;5.28;;;28.60;99.90;;;;;;4936878;29;20387;-75
2023/08/03 06:06:43;;;;;;;13.38;4.43;;;28.80;99.90;;;;;;4936649;29;20035;-75
2023/08/03 06:09:13;;;;;;;8.02;4.47;;;28.90;98.80;;;;;;4935528;29;20373;-76
2023/08/03 06:11:40;;;;;;;12.93;4.90;;;29.10;98.90;;;;;;4936453;29;20031;-76
2023/08/03 06:14:15;;;;;;;9.93;5.10;;;29.00;98.80;;;;;;4936468;29;20020;-73
2023/08/03 06:16:44;;;;;;;8.57;4.53;;;29.10;99.20;;;;;;4936690;29;20023;-73
2023/08/03 06:19:10;;;;;;;10.48;5.18;;;29.20;99.90;;;;;;4936620;29;20034;-72
2023/08/03 06:21:36;;;;;;;12.98;5.38;;;29.40;99.90;;;;;;4936746;29;20055;-76
2023/08/03 06:24:03;;;;;;;12.95;6.05;;;29.50;99.90;;;;;;4933578;29;20027;-72
2023/08/03 06:26:32;;;;;;;12.82;5.68;;;29.70;99.50;;;;;;4931505;29;20063;-74
2023/08/03 06:29:00;;;;;;;9.63;5.47;;;29.80;99.60;;;;;;4935487;29;20020;-76
2023/08/03 06:31:37;;;;;;;11.65;5.45;;;29.80;99.90;;;;;;4935890;29;20051;-74
2023/08/03 06:34:04;;;;;;;12.13;5.28;;;28.80;97.70;;;;;;4936147;29;20028;-77
2023/08/03 06:36:30;;;;;;;12.10;4.43;;;28.50;99.80;;;;;;4936034;29;20034;-74
2023/08/03 06:38:57;;;;;;;10.63;5.30;;;28.70;99.90;;;;;;4936391;29;20585;-73
2023/08/03 06:41:26;;;;;;;15.23;5.00;;;28.60;98.90;;;;;;4935943;29;20478;-76
2023/08/03 06:43:54;;;;;;;14.25;5.28;;;28.70;99.80;;;;;;4936078;29;20202;-76
2023/08/03 06:46:20;;;;;;;11.80;5.10;;;28.60;99.90;;;;;;4935764;29;20375;-77
2023/08/03 06:48:46;;;;;;;11.48;5.40;;;28.90;99.90;;;;;;4935983;29;20027;-76
2023/08/03 06:51:11;;;;;;;10.52;4.63;;;29.10;99.90;;;;;;4936055;29;20506;-76
2023/08/03 06:53:38;;;;;;;16.40;5.10;;;29.40;99.90;;;;;;4931054;29;20059;-72
2023/08/03 06:56:04;;;;;;;12.82;4.88;;;29.30;99.90;;;;;;4924065;29;20027;-73
2023/08/03 06:58:30;;;;;;;12.40;5.53;;;29.70;99.30;;;;;;4934905;29;20043;-76
2023/08/03 07:00:56;;;;;;;9.02;5.15;;;29.60;98.50;;;;;;4933221;29;20079;-74
2023/08/03 07:03:21;;;;;;;9.02;5.10;;;29.70;98.20;;;;;;4938652;29;20036;-74
2023/08/03 07:05:47;;;;;;;10.18;5.32;;;29.90;98.10;;;;;;4935404;29;20024;-73
2023/08/03 07:08:13;;;;;;;8.10;4.38;;;30.10;98.80;;;;;;4941619;29;20078;-73
2023/08/03 07:10:39;;;;;;;10.40;4.97;;;30.30;96.70;;;;;;4935467;29;20099;-73
2023/08/03 07:13:05;;;;;;;8.98;4.72;;;30.80;97.90;;;;;;4933399;29;20027;-73
2023/08/03 07:15:34;;;;;;;10.15;4.78;;;30.90;96.00;;;;;;4924585;29;20028;-77
2023/08/03 07:18:02;;;;;;;9.73;4.25;;;31.00;95.20;;;;;;4929467;29;20443;-76
2023/08/03 07:20:27;;;;;;;11.23;4.82;;;30.80;95.40;;;;;;4934553;29;20479;-73
2023/08/03 07:22:53;;;;;;;10.77;5.68;;;30.60;93.40;;;;;;4934972;29;20055;-77
2023/08/03 07:25:19;;;;;;;7.43;4.38;;;30.80;94.40;;;;;;4935294;29;20480;-73
2023/08/03 07:27:45;;;;;;;10.25;4.63;;;31.00;94.30;;;;;;4930002;29;20040;-75
2023/08/03 07:30:11;;;;;;;7.40;4.50;;;31.00;93.90;;;;;;4933941;29;20171;-73
2023/08/03 07:32:38;;;;;;;11.38;4.68;;;31.10;93.10;;;;;;4932321;29;20087;-77
2023/08/03 07:35:04;;;;;;;8.07;5.03;;;30.80;93.00;;;;;;4935110;29;20028;-76
2023/08/03 07:37:30;;;;;;;7.70;4.40;;;31.20;93.30;;;;;;4934662;29;20028;-74
2023/08/03 07:39:56;;;;;;;7.90;4.90;;;;;;;;;;4935033;29;20094;-73
2023/08/03 07:42:22;;;;;;;9.18;5.15;;;31.80;94.90;;;;;;4929577;29;20083;-75
2023/08/03 07:44:47;;;;;;;9.98;4.88;;;31.80;92.80;;;;;;4932852;29;20051;-73
2023/08/03 07:47:13;;;;;;;9.70;4.13;;;31.80;91.10;;;;;;4935158;29;20472;-76
2023/08/03 07:49:39;;;;;;;7.75;4.90;;;31.80;91.70;;;;;;4920756;29;20084;-76
2023/08/03 07:52:05;;;;;;;7.28;4.38;;;31.70;92.40;;;;;;4934018;29;20490;-76
2023/08/03 07:54:31;;;;;;;8.50;5.05;;;;;;;;;;4928426;29;20027;-76
2023/08/03 07:56:57;;;;;;;10.18;4.97;;;32.00;90.60;;;;;;4934713;29;20040;-76
2023/08/03 07:59:23;;;;;;;11.32;4.82;;;32.10;91.90;;;;;;4934963;29;20039;-73
2023/08/03 08:01:49;;;;;;;8.40;4.30;;;32.20;90.50;;;;;;4934598;29;20024;-72
2023/08/03 08:04:17;;;;;;;6.50;4.03;;;;;;;;;;4933995;29;20107;-72
2023/08/03 08:06:43;;;;;;;11.60;4.82;;;32.20;91.40;;;;;;4932540;29;20433;-73
2023/08/03 08:09:12;;;;;;;10.93;4.57;;;;;;;;;;4934664;29;20118;-76
2023/08/03 08:11:38;;;;;;;6.85;4.20;;;;;;;;;;4934587;29;20044;-76
2023/08/03 08:14:04;;;;;;;10.05;4.85;;;;;;;;;;4933290;29;20055;-73
2023/08/03 08:16:30;;;;;;;8.48;4.40;;;;;;;;;;4932769;29;20091;-76
2023/08/03 08:18:56;;;;;;;7.90;4.75;;;;;;;;;;4920910;29;20067;-72
2023/08/03 08:21:22;;;;;;;11.32;5.43;;;32.70;99.90;;;;;;4930968;29;20036;-76
2023/08/03 08:23:48;;;;;;;15.38;4.60;;;33.00;92.70;;;;;;4934284;29;20044;-74
2023/08/03 08:26:16;;;;;;;8.43;4.55;;;33.20;92.10;;;;;;4927184;29;20031;-76
2023/08/03 08:28:45;;;;;;;13.10;4.40;;;32.90;91.60;;;;;;4934560;29;20027;-74
2023/08/03 08:31:11;;;;;;;9.88;4.80;;;32.90;91.60;;;;;;4934117;29;20534;-73
2023/08/03 08:33:37;;;;;;;5.18;3.75;;;32.20;90.40;;;;;;4926436;29;20409;-72
2023/08/03 08:36:04;;;;;;;6.10;3.72;;;32.30;90.90;;;;;;4938528;29;20044;-73
2023/08/03 08:38:30;;;;;;;6.55;3.42;;;32.50;90.80;;;;;;4932238;29;20030;-75
2023/08/03 08:41:00;;;;;;;7.38;4.28;;;32.70;91.40;;;;;;4932782;29;20028;-76
2023/08/03 08:43:25;;;;;;;8.18;3.90;;;32.80;91.30;;;;;;4937603;29;20042;-76
2023/08/03 08:45:54;;;;;;;11.02;4.05;;;30.10;95.30;;;;;;4933679;29;20028;-72
2023/08/03 08:48:20;;;;;;;6.97;4.32;;;32.50;99.90;;;;;;4926418;29;20039;-75
2023/08/03 08:50:46;;;;;;;8.35;4.15;;;32.60;99.90;;;;;;4930600;29;20396;-75
2023/08/03 08:53:15;;;;;;;6.25;3.72;;;;;;;;;;4933019;29;20384;-76
2023/08/03 08:55:42;;;;;;;6.68;3.53;;;32.10;98.30;;;;;;4930753;29;20046;-73
2023/08/03 08:58:08;;;;;;;14.35;4.22;;;32.00;92.30;;;;;;4917413;29;20385;-76
2023/08/03 09:00:47;;;;;;;5.57;3.53;;;;;;;;;;4944623;29;20034;-75
2023/08/03 09:03:16;;;;;;;8.40;3.88;;;;;;;;;;4927799;29;20055;-76
2023/08/03 09:05:43;;;;;;;11.32;4.05;;;;;;;;;;4933866;29;20023;-72
2023/08/03 09:08:16;;;;;;;7.50;4.03;;;;;;;;;;4937147;29;20028;-75
2023/08/03 09:10:48;;;;;;;8.00;3.60;;;33.20;94.40;;;;;;4935366;29;20395;-77
2023/08/03 09:13:35;;;;;;;8.45;3.83;;;33.20;94.80;;;;;;4934400;29;20091;-76
2023/08/03 09:16:01;;;;;;;4.90;2.90;;;;;;;;;;4927836;29;20107;-77
2023/08/03 09:18:30;;;;;;;7.20;3.67;;;33.30;89.70;;;;;;4924967;29;20020;-75
2023/08/03 09:21:21;;;;;;;9.13;3.85;;;;;;;;;;4935398;29;20019;-78
2023/08/03 09:23:47;;;;;;;9.40;3.90;;;33.30;89.70;;;;;;4934210;29;20480;-76
2023/08/03 09:26:13;;;;;;;6.50;3.08;;;33.60;91.30;;;;;;4936925;29;20042;-73
2023/08/03 09:28:42;;;;;;;7.28;3.90;;;33.80;91.30;;;;;;4929170;29;20437;-78
2023/08/03 09:31:09;;;;;;;7.70;3.53;;;34.00;89.10;;;;;;4933786;29;20043;-75
2023/08/03 09:33:38;;;;;;;5.97;3.25;;;34.00;90.20;;;;;;4936588;29;20087;-75
2023/08/03 09:36:10;;;;;;;4.18;3.00;;;34.10;91.00;;;;;;4905686;29;20046;-74
2023/08/03 09:38:38;;;;;;;5.93;3.33;;;34.20;90.50;;;;;;4933983;29;20029;-72
2023/08/03 09:41:04;;;;;;;7.35;3.20;;;33.90;88.70;;;;;;4925827;29;20079;-75
2023/08/03 09:43:31;;;;;;;5.72;3.85;;;33.90;90.60;;;;;;4929445;29;20032;-71
2023/08/03 09:45:58;;;;;;;7.30;2.85;;;33.80;88.90;;;;;;4924576;29;20506;-71
2023/08/03 09:48:26;;;;;;;5.40;3.00;;;34.10;88.70;;;;;;4942747;29;20475;-76
2023/08/03 09:50:56;;;;;;;4.25;2.95;;;34.10;89.30;;;;;;4924420;29;20095;-71
2023/08/03 09:53:28;;;;;;;9.35;3.25;;;33.60;88.70;;;;;;4922111;29;20381;-74
2023/08/03 09:56:00;;;;;;;9.50;2.95;;;34.00;91.30;;;;;;4924565;29;20028;-73
2023/08/03 09:59:04;;;;;;;4.03;2.45;;;;;;;;;;4931764;29;20044;-74
2023/08/03 10:01:33;;;;;;;9.13;2.78;;;34.40;88.30;;;;;;4879141;29;20037;-74
2023/08/03 10:04:04;;;;;;;8.18;3.00;;;34.50;88.80;;;;;;4889595;29;20045;-75
2023/08/03 10:06:36;;;;;;;4.35;2.80;;;34.50;87.90;;;;;;4878753;29;20029;-74
2023/08/03 10:09:12;;;;;;;6.70;2.97;;;34.90;87.80;;;;;;4878911;29;20076;-76
2023/08/03 10:11:48;;;;;;;6.18;3.17;;;34.90;86.80;;;;;;4859528;29;20097;-76
2023/08/03 10:14:17;;;;;;;4.75;2.60;;;34.80;89.00;;;;;;4863526;29;20029;-76
2023/08/03 10:16:44;;;;;;;5.00;2.53;;;35.10;88.40;;;;;;4879191;29;20048;-75
2023/08/03 10:19:11;;;;;;;5.72;2.78;;;35.20;88.20;;;;;;4879034;29;20120;-75
2023/08/03 10:21:38;;;;;;;6.65;2.72;;;35.20;88.80;;;;;;4878975;29;20049;-73
2023/08/03 10:24:11;;;;;;;3.90;2.55;;;35.40;88.80;;;;;;4878619;29;20025;-74
2023/08/03 10:26:38;;;;;;;5.13;2.33;;;35.30;88.30;;;;;;4879015;29;20409;-74
2023/08/03 10:29:04;;;;;;;6.43;3.20;;;35.50;88.00;;;;;;4878478;29;20025;-74
2023/08/03 10:31:31;;;;;;;4.55;2.90;;;35.40;88.70;;;;;;4878878;29;20058;-74
2023/08/03 10:33:58;;;;;;;4.75;2.75;;;;;;;;;;4886923;29;20513;-74
2023/08/03 10:36:37;;;;;;;7.63;3.25;;;35.60;86.10;;;;;;4929905;29;20052;-75
2023/08/03 10:39:09;;;;;;;5.95;2.75;;;35.60;87.60;;;;;;4937465;29;20116;-71
2023/08/03 10:41:40;;;;;;;4.18;2.58;;;35.70;88.90;;;;;;4937154;29;20055;-74
2023/08/03 10:44:06;;;;;;;5.43;3.10;;;35.60;87.50;;;;;;4937481;29;20027;-74
2023/08/03 10:46:49;;;;;;;5.03;2.85;;;35.30;90.60;;;;;;4937143;29;20480;-74
2023/08/03 10:49:22;;;;;;;6.18;2.75;;;35.30;87.80;;;;;;4937057;29;20031;-72
2023/08/03 10:51:50;;;;;;;4.47;2.78;;;35.60;87.60;;;;;;4935456;29;20032;-76
2023/08/03 10:54:21;;;;;;;6.60;3.00;;;35.60;91.80;;;;;;4936007;29;20036;-77
2023/08/03 10:57:07;;;;;;;5.63;2.55;;;35.40;85.90;;;;;;4936978;29;20039;-73
2023/08/03 10:59:39;;;;;;;4.10;2.63;;;34.90;87.30;;;;;;4937086;29;20484;-77
2023/08/03 11:02:25;;;;;;;5.25;3.42;;;35.20;90.60;;;;;;4936305;29;20559;-77
2023/08/03 11:04:54;;;;;;;8.18;3.17;;;35.10;90.10;;;;;;4937294;29;20031;-77
2023/08/03 11:07:26;;;;;;;5.40;3.10;;;35.20;83.90;;;;;;4937042;29;20379;-73
2023/08/03 11:09:53;;;;;;;5.70;2.72;;;35.30;86.70;;;;;;4936488;29;20039;-76
2023/08/03 11:12:20;;;;;;;5.35;2.78;;;35.20;90.00;;;;;;4936818;29;20075;-77
2023/08/03 11:14:48;;;;;;;5.55;3.05;;;35.30;94.90;;;;;;4936656;29;20024;-73
2023/08/03 11:17:15;;;;;;;6.05;2.80;;;35.30;86.70;;;;;;4927489;29;20028;-75
2023/08/03 11:19:48;;;;;;;12.70;3.25;;;35.10;88.30;;;;;;4926866;29;20100;-75
2023/08/03 11:22:15;;;;;;;5.00;3.00;;;35.20;83.00;;;;;;4917948;29;20048;-75
2023/08/03 11:24:42;;;;;;;8.77;2.88;;;35.00;87.10;;;;;;4928034;29;20047;-73
2023/08/03 11:27:11;;;;;;;7.18;3.05;;;35.00;84.90;;;;;;4931662;29;20079;-72
2023/08/03 11:29:37;;;;;;;8.15;3.03;;;35.00;99.90;;;;;;4931518;29;20024;-74
2023/08/03 11:32:04;;;;;;;7.65;2.58;;;35.10;97.30;;;;;;4928993;29;20457;-75
2023/08/03 11:34:30;;;;;;;3.65;2.50;;;35.00;84.60;;;;;;4930447;29;20038;-73
2023/08/03 11:36:56;;;;;;;5.35;3.00;;;35.10;87.50;;;;;;4923738;29;20491;-74
2023/08/03 11:39:22;;;;;;;6.68;2.90;;;35.00;87.40;;;;;;4921297;29;20393;-76
2023/08/03 11:41:54;;;;;;;6.30;3.35;;;34.90;84.60;;;;;;4925783;29;20108;-75
2023/08/03 11:44:23;;;;;;;6.47;2.63;;;35.00;87.40;;;;;;4933155;29;20031;-75
2023/08/03 11:47:06;;;;;;;4.22;2.70;;;35.00;88.10;;;;;;4926847;29;20024;-75
2023/08/03 11:49:32;;;;;;;6.95;3.05;;;35.10;88.80;;;;;;4929519;29;20028;-74
2023/08/03 11:52:01;;;;;;;4.10;2.53;;;35.10;90.70;;;;;;4927142;29;20107;-75
2023/08/03 11:54:37;;;;;;;6.40;3.17;;;35.20;89.20;;;;;;4931376;29;20031;-74
2023/08/03 11:59:49;;;;;;;7.25;3.00;;;35.20;90.00;;;;;;4924667;29;20032;-75
2023/08/03 12:02:15;;;;;;;6.78;2.95;;;35.20;90.10;;;;;;4925276;29;20480;-75
2023/08/03 12:04:41;;;;;;;7.38;2.85;;;35.30;88.60;;;;;;4926632;29;20023;-76
2023/08/03 12:07:08;;;;;;;4.60;2.92;;;35.30;87.20;;;;;;4924101;29;20034;-76
2023/08/03 12:09:41;;;;;;;4.40;2.85;;;35.30;87.20;;;;;;4925134;29;20054;-75
2023/08/03 12:12:10;;;;;;;6.45;3.30;;;35.20;88.80;;;;;;4927523;29;20810;-76
2023/08/03 12:14:36;;;;;;;4.88;3.08;;;35.20;90.00;;;;;;4927667;29;20024;-75
2023/08/03 12:17:04;;;;;;;6.78;2.88;;;35.30;90.10;;;;;;4920379;29;20023;-76
2023/08/03 12:19:33;;;;;;;13.10;3.17;;;35.40;91.30;;;;;;4935477;29;20023;-77
2023/08/03 12:22:03;;;;;;;6.65;3.17;;;35.40;91.50;;;;;;4915352;29;20048;-76
2023/08/03 12:24:29;;;;;;;5.35;3.03;;;35.50;92.50;;;;;;4917402;29;20036;-77
2023/08/03 12:26:56;;;;;;;5.68;2.83;;;35.60;97.00;;;;;;4921594;29;20044;-77
2023/08/03 12:29:22;;;;;;;4.75;2.85;;;35.60;97.20;;;;;;4935701;29;20067;-76
2023/08/03 12:31:48;;;;;;;5.78;3.35;;;35.60;95.20;;;;;;4935371;29;20531;-74
2023/08/03 12:34:14;;;;;;;6.65;2.58;;;35.50;91.80;;;;;;4935498;29;20527;-77
2023/08/03 12:36:40;;;;;;;4.40;2.80;;;35.60;86.90;;;;;;4935587;29;20106;-77
2023/08/03 12:39:06;;;;;;;8.73;2.95;;;35.60;86.80;;;;;;4908065;29;20040;-76
2023/08/03 12:41:32;;;;;;;4.32;2.70;;;35.60;87.10;;;;;;4935155;29;20029;-76
2023/08/03 12:43:58;;;;;;;5.55;3.15;;;35.50;87.30;;;;;;4934225;29;20082;-72
2023/08/03 12:46:27;;;;;;;3.97;2.50;;;35.40;84.20;;;;;;4935048;29;20500;-77
2023/08/03 12:48:53;;;;;;;5.25;2.55;;;35.40;86.60;;;;;;4934465;29;20042;-75
2023/08/03 12:51:19;;;;;;;4.85;2.80;;;35.10;88.40;;;;;;4934762;29;20083;-73
2023/08/03 12:53:49;;;;;;;7.47;2.75;;;35.00;86.00;;;;;;4935429;29;20074;-77
2023/08/03 12:56:15;;;;;;;7.03;2.88;;;35.00;85.30;;;;;;4935098;29;21649;-76